sensor_id;sensor_type;location;lat;lon;timestamp;P1;durP1;ratioP1;P2;durP2;ratioP2
19907;SDS011;10116;53.112;7.356;2023-05-07T00:01:49;5.53;;;5.00;;
19907;SDS011;10116;53.112;7.356;2023-05-07T00:04:14;5.47;;;4.97;;
19907;SDS011;10116;53.112;7.356;2023-05-07T00:06:40;5.87;;;4.90;;
19907;SDS011;10116;53.112;7.356;2023-05-07T00:09:06;5.33;;;4.87;;
19907;SDS011;10116;53.112;7.356;2023-05-07T00:11:32;5.37;;;4.90;;
19907;SDS011;10116;53.112;7.356;2023-05-07T00:13:58;5.47;;;5.03;;
19907;SDS011;10116;53.112;7.356;2023-05-07T00:16:23;6.20;;;5.70;;
19907;SDS011;10116;53.112;7.356;2023-05-07T00:18:49;6.60;;;5.37;;
19907;SDS011;10116;53.112;7.356;2023-05-07T00:21:15;6.40;;;5.80;;
19907;SDS011;10116;53.112;7.356;2023-05-07T00:23:41;7.07;;;6.40;;
19907;SDS011;10116;53.112;7.356;2023-05-07T00:26:06;6.37;;;5.87;;
19907;SDS011;10116;53.112;7.356;2023-05-07T00:28:32;6.07;;;5.57;;
19907;SDS011;10116;53.112;7.356;2023-05-07T00:30:57;6.70;;;6.10;;
19907;SDS011;10116;53.112;7.356;2023-05-07T00:33:23;6.30;;;5.70;;
19907;SDS011;10116;53.112;7.356;2023-05-07T00:35:49;7.60;;;7.00;;
19907;SDS011;10116;53.112;7.356;2023-05-07T00:38:15;7.07;;;6.57;;
19907;SDS011;10116;53.112;7.356;2023-05-07T00:40:40;7.03;;;6.43;;
19907;SDS011;10116;53.112;7.356;2023-05-07T00:43:06;8.17;;;7.10;;
19907;SDS011;10116;53.112;7.356;2023-05-07T00:45:32;7.30;;;6.70;;
19907;SDS011;10116;53.112;7.356;2023-05-07T00:47:59;7.07;;;6.50;;
19907;SDS011;10116;53.112;7.356;2023-05-07T00:50:26;7.70;;;7.00;;
19907;SDS011;10116;53.112;7.356;2023-05-07T00:52:53;7.00;;;6.50;;
19907;SDS011;10116;53.112;7.356;2023-05-07T00:55:19;6.93;;;6.33;;
19907;SDS011;10116;53.112;7.356;2023-05-07T00:57:46;7.13;;;6.57;;
19907;SDS011;10116;53.112;7.356;2023-05-07T01:00:12;6.67;;;6.17;;
19907;SDS011;10116;53.112;7.356;2023-05-07T01:02:38;6.33;;;5.90;;
19907;SDS011;10116;53.112;7.356;2023-05-07T01:05:04;6.97;;;6.47;;
19907;SDS011;10116;53.112;7.356;2023-05-07T01:07:34;7.30;;;6.60;;
19907;SDS011;10116;53.112;7.356;2023-05-07T01:10:00;7.13;;;6.30;;
19907;SDS011;10116;53.112;7.356;2023-05-07T01:12:27;7.50;;;6.90;;
19907;SDS011;10116;53.112;7.356;2023-05-07T01:14:54;8.73;;;6.77;;
19907;SDS011;10116;53.112;7.356;2023-05-07T01:17:20;7.97;;;7.17;;
19907;SDS011;10116;53.112;7.356;2023-05-07T01:19:46;7.60;;;7.00;;
19907;SDS011;10116;53.112;7.356;2023-05-07T01:22:12;8.07;;;7.37;;
19907;SDS011;10116;53.112;7.356;2023-05-07T01:24:41;7.87;;;7.17;;
19907;SDS011;10116;53.112;7.356;2023-05-07T01:27:07;8.37;;;7.57;;
19907;SDS011;10116;53.112;7.356;2023-05-07T01:29:33;8.63;;;7.10;;
19907;SDS011;10116;53.112;7.356;2023-05-07T01:32:00;7.53;;;6.77;;
19907;SDS011;10116;53.112;7.356;2023-05-07T01:34:28;8.63;;;6.37;;
19907;SDS011;10116;53.112;7.356;2023-05-07T01:36:57;7.00;;;6.43;;
19907;SDS011;10116;53.112;7.356;2023-05-07T01:39:24;7.60;;;6.90;;
19907;SDS011;10116;53.112;7.356;2023-05-07T01:41:51;6.47;;;5.97;;
19907;SDS011;10116;53.112;7.356;2023-05-07T01:44:21;7.10;;;6.50;;
19907;SDS011;10116;53.112;7.356;2023-05-07T01:46:47;7.10;;;6.50;;
19907;SDS011;10116;53.112;7.356;2023-05-07T01:49:14;7.97;;;7.17;;
19907;SDS011;10116;53.112;7.356;2023-05-07T01:51:41;6.37;;;5.83;;
19907;SDS011;10116;53.112;7.356;2023-05-07T01:54:06;7.53;;;6.93;;
19907;SDS011;10116;53.112;7.356;2023-05-07T01:56:33;7.47;;;6.87;;
19907;SDS011;10116;53.112;7.356;2023-05-07T01:58:59;8.03;;;7.27;;
19907;SDS011;10116;53.112;7.356;2023-05-07T02:01:27;8.03;;;7.33;;
19907;SDS011;10116;53.112;7.356;2023-05-07T02:03:53;7.90;;;7.30;;
19907;SDS011;10116;53.112;7.356;2023-05-07T02:06:18;7.80;;;7.10;;
19907;SDS011;10116;53.112;7.356;2023-05-07T02:08:44;8.47;;;7.67;;
19907;SDS011;10116;53.112;7.356;2023-05-07T02:11:11;7.70;;;7.00;;
19907;SDS011;10116;53.112;7.356;2023-05-07T02:13:36;8.33;;;7.53;;
19907;SDS011;10116;53.112;7.356;2023-05-07T02:16:02;7.93;;;7.23;;
19907;SDS011;10116;53.112;7.356;2023-05-07T02:18:28;9.87;;;6.80;;
19907;SDS011;10116;53.112;7.356;2023-05-07T02:20:54;8.30;;;7.37;;
19907;SDS011;10116;53.112;7.356;2023-05-07T02:23:20;8.00;;;7.30;;
19907;SDS011;10116;53.112;7.356;2023-05-07T02:25:45;10.93;;;7.77;;
19907;SDS011;10116;53.112;7.356;2023-05-07T02:28:11;8.33;;;7.47;;
19907;SDS011;10116;53.112;7.356;2023-05-07T02:30:38;7.40;;;6.60;;
19907;SDS011;10116;53.112;7.356;2023-05-07T02:33:03;7.27;;;6.63;;
19907;SDS011;10116;53.112;7.356;2023-05-07T02:35:29;7.10;;;6.60;;
19907;SDS011;10116;53.112;7.356;2023-05-07T02:37:55;7.60;;;6.90;;
19907;SDS011;10116;53.112;7.356;2023-05-07T02:40:20;6.67;;;6.17;;
19907;SDS011;10116;53.112;7.356;2023-05-07T02:42:46;6.40;;;5.80;;
19907;SDS011;10116;53.112;7.356;2023-05-07T02:45:12;6.70;;;5.67;;
19907;SDS011;10116;53.112;7.356;2023-05-07T02:47:39;6.60;;;6.03;;
19907;SDS011;10116;53.112;7.356;2023-05-07T02:50:05;7.87;;;7.17;;
19907;SDS011;10116;53.112;7.356;2023-05-07T02:52:31;6.80;;;6.13;;
19907;SDS011;10116;53.112;7.356;2023-05-07T02:54:56;6.77;;;6.17;;
19907;SDS011;10116;53.112;7.356;2023-05-07T02:57:22;6.17;;;5.77;;
19907;SDS011;10116;53.112;7.356;2023-05-07T02:59:47;6.13;;;5.63;;
19907;SDS011;10116;53.112;7.356;2023-05-07T03:02:13;6.40;;;5.90;;
19907;SDS011;10116;53.112;7.356;2023-05-07T03:04:39;8.30;;;5.80;;
19907;SDS011;10116;53.112;7.356;2023-05-07T03:07:05;6.40;;;5.90;;
19907;SDS011;10116;53.112;7.356;2023-05-07T03:09:30;7.13;;;6.53;;
19907;SDS011;10116;53.112;7.356;2023-05-07T03:11:56;6.37;;;5.13;;
19907;SDS011;10116;53.112;7.356;2023-05-07T03:14:22;7.10;;;6.50;;
19907;SDS011;10116;53.112;7.356;2023-05-07T03:16:48;5.93;;;5.50;;
19907;SDS011;10116;53.112;7.356;2023-05-07T03:19:14;6.00;;;5.60;;
19907;SDS011;10116;53.112;7.356;2023-05-07T03:21:40;5.97;;;5.57;;
19907;SDS011;10116;53.112;7.356;2023-05-07T03:24:06;6.33;;;5.83;;
19907;SDS011;10116;53.112;7.356;2023-05-07T03:26:31;7.50;;;6.80;;
19907;SDS011;10116;53.112;7.356;2023-05-07T03:28:57;7.30;;;6.60;;
19907;SDS011;10116;53.112;7.356;2023-05-07T03:31:22;7.30;;;6.80;;
19907;SDS011;10116;53.112;7.356;2023-05-07T03:33:55;7.93;;;7.33;;
19907;SDS011;10116;53.112;7.356;2023-05-07T03:36:21;8.13;;;7.43;;
19907;SDS011;10116;53.112;7.356;2023-05-07T03:38:48;8.80;;;8.10;;
19907;SDS011;10116;53.112;7.356;2023-05-07T03:41:15;9.03;;;8.23;;
19907;SDS011;10116;53.112;7.356;2023-05-07T03:43:40;10.23;;;8.30;;
19907;SDS011;10116;53.112;7.356;2023-05-07T03:46:06;9.97;;;9.17;;
19907;SDS011;10116;53.112;7.356;2023-05-07T03:48:32;9.97;;;9.07;;
19907;SDS011;10116;53.112;7.356;2023-05-07T03:50:58;10.30;;;9.30;;
19907;SDS011;10116;53.112;7.356;2023-05-07T03:53:24;9.83;;;8.93;;
19907;SDS011;10116;53.112;7.356;2023-05-07T03:55:50;10.73;;;9.80;;
19907;SDS011;10116;53.112;7.356;2023-05-07T03:58:16;11.40;;;10.40;;
19907;SDS011;10116;53.112;7.356;2023-05-07T04:00:41;10.90;;;10.00;;
19907;SDS011;10116;53.112;7.356;2023-05-07T04:03:07;10.43;;;9.43;;
19907;SDS011;10116;53.112;7.356;2023-05-07T04:05:33;11.00;;;10.10;;
19907;SDS011;10116;53.112;7.356;2023-05-07T04:07:59;12.13;;;11.00;;
19907;SDS011;10116;53.112;7.356;2023-05-07T04:10:25;11.50;;;10.50;;
19907;SDS011;10116;53.112;7.356;2023-05-07T04:12:51;11.07;;;10.00;;
19907;SDS011;10116;53.112;7.356;2023-05-07T04:15:17;10.53;;;9.63;;
19907;SDS011;10116;53.112;7.356;2023-05-07T04:17:43;10.63;;;9.73;;
19907;SDS011;10116;53.112;7.356;2023-05-07T04:20:09;9.97;;;9.17;;
19907;SDS011;10116;53.112;7.356;2023-05-07T04:22:36;10.23;;;9.33;;
19907;SDS011;10116;53.112;7.356;2023-05-07T04:25:02;10.80;;;9.90;;
19907;SDS011;10116;53.112;7.356;2023-05-07T04:27:28;12.00;;;11.00;;
19907;SDS011;10116;53.112;7.356;2023-05-07T04:29:54;11.60;;;10.50;;
19907;SDS011;10116;53.112;7.356;2023-05-07T04:32:21;10.83;;;9.93;;
19907;SDS011;10116;53.112;7.356;2023-05-07T04:34:47;10.40;;;9.60;;
19907;SDS011;10116;53.112;7.356;2023-05-07T04:37:12;10.47;;;9.57;;
19907;SDS011;10116;53.112;7.356;2023-05-07T04:39:38;10.73;;;9.83;;
19907;SDS011;10116;53.112;7.356;2023-05-07T04:42:04;11.13;;;10.23;;
19907;SDS011;10116;53.112;7.356;2023-05-07T04:44:30;9.97;;;9.07;;
19907;SDS011;10116;53.112;7.356;2023-05-07T04:46:56;10.27;;;9.37;;
19907;SDS011;10116;53.112;7.356;2023-05-07T04:49:22;10.27;;;9.37;;
19907;SDS011;10116;53.112;7.356;2023-05-07T04:51:48;9.17;;;8.43;;
19907;SDS011;10116;53.112;7.356;2023-05-07T04:54:14;8.80;;;8.10;;
19907;SDS011;10116;53.112;7.356;2023-05-07T04:56:39;8.97;;;8.27;;
19907;SDS011;10116;53.112;7.356;2023-05-07T04:59:05;9.30;;;8.50;;
19907;SDS011;10116;53.112;7.356;2023-05-07T05:01:31;8.93;;;8.13;;
19907;SDS011;10116;53.112;7.356;2023-05-07T05:03:56;8.37;;;7.70;;
19907;SDS011;10116;53.112;7.356;2023-05-07T05:06:22;7.80;;;7.20;;
19907;SDS011;10116;53.112;7.356;2023-05-07T05:08:48;8.30;;;7.70;;
19907;SDS011;10116;53.112;7.356;2023-05-07T05:11:13;8.70;;;8.00;;
19907;SDS011;10116;53.112;7.356;2023-05-07T05:13:39;7.97;;;7.37;;
19907;SDS011;10116;53.112;7.356;2023-05-07T05:16:05;7.47;;;6.97;;
19907;SDS011;10116;53.112;7.356;2023-05-07T05:18:32;7.90;;;7.30;;
19907;SDS011;10116;53.112;7.356;2023-05-07T05:20:58;8.10;;;7.40;;
19907;SDS011;10116;53.112;7.356;2023-05-07T05:23:23;7.87;;;7.27;;
19907;SDS011;10116;53.112;7.356;2023-05-07T05:25:49;8.57;;;7.87;;
19907;SDS011;10116;53.112;7.356;2023-05-07T05:28:15;8.10;;;7.40;;
19907;SDS011;10116;53.112;7.356;2023-05-07T05:30:40;7.80;;;7.20;;
19907;SDS011;10116;53.112;7.356;2023-05-07T05:33:06;7.40;;;6.60;;
19907;SDS011;10116;53.112;7.356;2023-05-07T05:35:31;8.43;;;7.83;;
19907;SDS011;10116;53.112;7.356;2023-05-07T05:37:57;8.40;;;7.80;;
19907;SDS011;10116;53.112;7.356;2023-05-07T05:40:22;8.57;;;7.80;;
19907;SDS011;10116;53.112;7.356;2023-05-07T05:42:48;8.07;;;7.47;;
19907;SDS011;10116;53.112;7.356;2023-05-07T05:45:14;8.93;;;8.13;;
19907;SDS011;10116;53.112;7.356;2023-05-07T05:47:40;8.80;;;8.10;;
19907;SDS011;10116;53.112;7.356;2023-05-07T05:50:06;8.67;;;8.03;;
19907;SDS011;10116;53.112;7.356;2023-05-07T05:52:32;9.03;;;8.33;;
19907;SDS011;10116;53.112;7.356;2023-05-07T05:54:58;8.50;;;7.90;;
19907;SDS011;10116;53.112;7.356;2023-05-07T05:57:23;8.00;;;7.40;;
19907;SDS011;10116;53.112;7.356;2023-05-07T05:59:49;9.30;;;8.50;;
19907;SDS011;10116;53.112;7.356;2023-05-07T06:02:15;9.00;;;8.30;;
19907;SDS011;10116;53.112;7.356;2023-05-07T06:04:40;8.70;;;8.00;;
19907;SDS011;10116;53.112;7.356;2023-05-07T06:07:07;8.70;;;8.00;;
19907;SDS011;10116;53.112;7.356;2023-05-07T06:09:33;8.87;;;8.17;;
19907;SDS011;10116;53.112;7.356;2023-05-07T06:11:58;9.63;;;8.83;;
19907;SDS011;10116;53.112;7.356;2023-05-07T06:14:24;8.40;;;7.70;;
19907;SDS011;10116;53.112;7.356;2023-05-07T06:16:50;8.40;;;7.70;;
19907;SDS011;10116;53.112;7.356;2023-05-07T06:19:15;9.47;;;8.67;;
19907;SDS011;10116;53.112;7.356;2023-05-07T06:21:43;7.73;;;7.13;;
19907;SDS011;10116;53.112;7.356;2023-05-07T06:24:08;8.60;;;7.80;;
19907;SDS011;10116;53.112;7.356;2023-05-07T06:26:35;8.40;;;7.77;;
19907;SDS011;10116;53.112;7.356;2023-05-07T06:29:00;8.43;;;7.53;;
19907;SDS011;10116;53.112;7.356;2023-05-07T06:31:28;8.87;;;8.07;;
19907;SDS011;10116;53.112;7.356;2023-05-07T06:33:56;7.93;;;7.33;;
19907;SDS011;10116;53.112;7.356;2023-05-07T06:36:22;7.67;;;7.07;;
19907;SDS011;10116;53.112;7.356;2023-05-07T06:38:48;7.50;;;6.90;;
19907;SDS011;10116;53.112;7.356;2023-05-07T06:41:13;7.93;;;7.33;;
19907;SDS011;10116;53.112;7.356;2023-05-07T06:43:39;8.43;;;7.77;;
19907;SDS011;10116;53.112;7.356;2023-05-07T06:46:05;8.60;;;7.80;;
19907;SDS011;10116;53.112;7.356;2023-05-07T06:48:30;8.93;;;7.63;;
19907;SDS011;10116;53.112;7.356;2023-05-07T06:50:56;9.30;;;8.30;;
19907;SDS011;10116;53.112;7.356;2023-05-07T06:53:22;8.70;;;8.00;;
19907;SDS011;10116;53.112;7.356;2023-05-07T06:55:48;9.60;;;8.80;;
19907;SDS011;10116;53.112;7.356;2023-05-07T06:58:14;10.33;;;9.33;;
19907;SDS011;10116;53.112;7.356;2023-05-07T07:00:40;8.90;;;8.20;;
19907;SDS011;10116;53.112;7.356;2023-05-07T07:03:06;8.90;;;8.23;;
19907;SDS011;10116;53.112;7.356;2023-05-07T07:05:32;9.73;;;8.90;;
19907;SDS011;10116;53.112;7.356;2023-05-07T07:07:57;9.57;;;8.87;;
19907;SDS011;10116;53.112;7.356;2023-05-07T07:10:23;9.23;;;8.43;;
19907;SDS011;10116;53.112;7.356;2023-05-07T07:12:49;9.63;;;8.83;;
19907;SDS011;10116;53.112;7.356;2023-05-07T07:15:15;9.30;;;8.43;;
19907;SDS011;10116;53.112;7.356;2023-05-07T07:17:41;9.70;;;8.80;;
19907;SDS011;10116;53.112;7.356;2023-05-07T07:20:06;9.03;;;8.00;;
19907;SDS011;10116;53.112;7.356;2023-05-07T07:22:33;8.37;;;7.70;;
19907;SDS011;10116;53.112;7.356;2023-05-07T07:24:58;8.60;;;7.87;;
19907;SDS011;10116;53.112;7.356;2023-05-07T07:27:24;9.10;;;8.30;;
19907;SDS011;10116;53.112;7.356;2023-05-07T07:29:50;8.23;;;7.57;;
19907;SDS011;10116;53.112;7.356;2023-05-07T07:32:15;8.40;;;7.70;;
19907;SDS011;10116;53.112;7.356;2023-05-07T07:34:41;8.43;;;7.63;;
19907;SDS011;10116;53.112;7.356;2023-05-07T07:37:06;7.80;;;7.20;;
19907;SDS011;10116;53.112;7.356;2023-05-07T07:39:32;6.83;;;6.33;;
19907;SDS011;10116;53.112;7.356;2023-05-07T07:41:58;7.80;;;7.10;;
19907;SDS011;10116;53.112;7.356;2023-05-07T07:44:24;7.90;;;7.30;;
19907;SDS011;10116;53.112;7.356;2023-05-07T07:46:50;9.30;;;7.40;;
19907;SDS011;10116;53.112;7.356;2023-05-07T07:49:16;6.40;;;5.90;;
19907;SDS011;10116;53.112;7.356;2023-05-07T07:51:42;7.03;;;6.53;;
19907;SDS011;10116;53.112;7.356;2023-05-07T07:54:08;7.83;;;7.13;;
19907;SDS011;10116;53.112;7.356;2023-05-07T07:56:33;10.50;;;7.43;;
19907;SDS011;10116;53.112;7.356;2023-05-07T07:59:00;8.10;;;7.50;;
19907;SDS011;10116;53.112;7.356;2023-05-07T08:01:26;8.37;;;7.67;;
19907;SDS011;10116;53.112;7.356;2023-05-07T08:03:51;7.37;;;6.87;;
19907;SDS011;10116;53.112;7.356;2023-05-07T08:06:17;7.77;;;7.17;;
19907;SDS011;10116;53.112;7.356;2023-05-07T08:08:43;7.13;;;6.60;;
19907;SDS011;10116;53.112;7.356;2023-05-07T08:11:09;7.47;;;6.20;;
19907;SDS011;10116;53.112;7.356;2023-05-07T08:13:35;7.10;;;6.57;;
19907;SDS011;10116;53.112;7.356;2023-05-07T08:16:01;6.27;;;5.77;;
19907;SDS011;10116;53.112;7.356;2023-05-07T08:18:27;6.57;;;6.03;;
19907;SDS011;10116;53.112;7.356;2023-05-07T08:20:54;6.90;;;6.40;;
19907;SDS011;10116;53.112;7.356;2023-05-07T08:23:20;7.43;;;5.57;;
19907;SDS011;10116;53.112;7.356;2023-05-07T08:25:45;5.37;;;4.97;;
19907;SDS011;10116;53.112;7.356;2023-05-07T08:28:11;5.67;;;5.20;;
19907;SDS011;10116;53.112;7.356;2023-05-07T08:30:37;4.87;;;4.57;;
19907;SDS011;10116;53.112;7.356;2023-05-07T08:33:02;5.63;;;5.23;;
19907;SDS011;10116;53.112;7.356;2023-05-07T08:35:28;4.83;;;4.53;;
19907;SDS011;10116;53.112;7.356;2023-05-07T08:37:54;5.53;;;5.10;;
19907;SDS011;10116;53.112;7.356;2023-05-07T08:40:20;5.90;;;5.40;;
19907;SDS011;10116;53.112;7.356;2023-05-07T08:42:50;4.77;;;4.47;;
19907;SDS011;10116;53.112;7.356;2023-05-07T08:45:18;5.70;;;4.63;;
19907;SDS011;10116;53.112;7.356;2023-05-07T08:47:46;4.30;;;4.10;;
19907;SDS011;10116;53.112;7.356;2023-05-07T08:50:15;4.10;;;3.87;;
19907;SDS011;10116;53.112;7.356;2023-05-07T08:52:41;3.90;;;3.30;;
19907;SDS011;10116;53.112;7.356;2023-05-07T08:55:07;3.67;;;3.47;;
19907;SDS011;10116;53.112;7.356;2023-05-07T08:57:34;3.87;;;3.67;;
19907;SDS011;10116;53.112;7.356;2023-05-07T09:00:00;4.20;;;3.90;;
19907;SDS011;10116;53.112;7.356;2023-05-07T09:02:27;3.83;;;3.13;;
19907;SDS011;10116;53.112;7.356;2023-05-07T09:04:53;3.97;;;3.77;;
19907;SDS011;10116;53.112;7.356;2023-05-07T09:07:19;3.67;;;3.47;;
19907;SDS011;10116;53.112;7.356;2023-05-07T09:09:45;3.50;;;3.30;;
19907;SDS011;10116;53.112;7.356;2023-05-07T09:12:11;3.30;;;3.10;;
19907;SDS011;10116;53.112;7.356;2023-05-07T09:14:37;3.47;;;3.20;;
19907;SDS011;10116;53.112;7.356;2023-05-07T09:17:04;3.00;;;2.80;;
19907;SDS011;10116;53.112;7.356;2023-05-07T09:19:30;4.20;;;3.90;;
19907;SDS011;10116;53.112;7.356;2023-05-07T09:22:02;3.13;;;3.00;;
19907;SDS011;10116;53.112;7.356;2023-05-07T09:24:30;3.03;;;2.83;;
19907;SDS011;10116;53.112;7.356;2023-05-07T09:27:00;3.00;;;2.90;;
19907;SDS011;10116;53.112;7.356;2023-05-07T09:29:27;3.60;;;3.20;;
19907;SDS011;10116;53.112;7.356;2023-05-07T09:32:00;3.13;;;2.80;;
19907;SDS011;10116;53.112;7.356;2023-05-07T09:34:28;3.43;;;3.23;;
19907;SDS011;10116;53.112;7.356;2023-05-07T09:37:00;2.90;;;2.80;;
19907;SDS011;10116;53.112;7.356;2023-05-07T09:39:37;3.23;;;2.90;;
19907;SDS011;10116;53.112;7.356;2023-05-07T09:42:11;3.07;;;2.87;;
19907;SDS011;10116;53.112;7.356;2023-05-07T09:44:37;3.20;;;3.03;;
19907;SDS011;10116;53.112;7.356;2023-05-07T09:47:07;3.67;;;3.47;;
19907;SDS011;10116;53.112;7.356;2023-05-07T09:49:33;3.23;;;3.07;;
19907;SDS011;10116;53.112;7.356;2023-05-07T09:52:01;3.53;;;3.30;;
19907;SDS011;10116;53.112;7.356;2023-05-07T09:54:30;2.90;;;2.70;;
19907;SDS011;10116;53.112;7.356;2023-05-07T09:56:58;2.90;;;2.80;;
19907;SDS011;10116;53.112;7.356;2023-05-07T09:59:28;2.80;;;2.70;;
19907;SDS011;10116;53.112;7.356;2023-05-07T10:01:57;3.47;;;3.27;;
19907;SDS011;10116;53.112;7.356;2023-05-07T10:04:24;3.67;;;3.37;;
19907;SDS011;10116;53.112;7.356;2023-05-07T10:06:53;3.10;;;2.90;;
19907;SDS011;10116;53.112;7.356;2023-05-07T10:09:20;2.87;;;2.77;;
19907;SDS011;10116;53.112;7.356;2023-05-07T10:11:47;3.13;;;2.93;;
19907;SDS011;10116;53.112;7.356;2023-05-07T10:14:14;3.37;;;3.00;;
19907;SDS011;10116;53.112;7.356;2023-05-07T10:16:40;3.03;;;2.90;;
19907;SDS011;10116;53.112;7.356;2023-05-07T10:19:07;2.90;;;2.80;;
19907;SDS011;10116;53.112;7.356;2023-05-07T10:21:39;2.97;;;2.83;;
19907;SDS011;10116;53.112;7.356;2023-05-07T10:24:25;3.43;;;3.13;;
19907;SDS011;10116;53.112;7.356;2023-05-07T10:26:52;3.87;;;3.67;;
19907;SDS011;10116;53.112;7.356;2023-05-07T10:31:57;4.03;;;3.63;;
19907;SDS011;10116;53.112;7.356;2023-05-07T10:34:28;4.30;;;4.00;;
19907;SDS011;10116;53.112;7.356;2023-05-07T10:36:59;4.07;;;3.80;;
19907;SDS011;10116;53.112;7.356;2023-05-07T10:39:25;4.97;;;4.57;;
19907;SDS011;10116;53.112;7.356;2023-05-07T10:41:51;4.90;;;4.40;;
19907;SDS011;10116;53.112;7.356;2023-05-07T10:44:27;4.93;;;4.50;;
19907;SDS011;10116;53.112;7.356;2023-05-07T10:47:15;4.63;;;4.30;;
19907;SDS011;10116;53.112;7.356;2023-05-07T10:52:27;4.57;;;4.27;;
19907;SDS011;10116;53.112;7.356;2023-05-07T10:55:18;4.97;;;4.67;;
19907;SDS011;10116;53.112;7.356;2023-05-07T10:57:46;4.60;;;4.30;;
19907;SDS011;10116;53.112;7.356;2023-05-07T11:05:31;4.60;;;4.03;;
19907;SDS011;10116;53.112;7.356;2023-05-07T11:08:01;3.90;;;3.70;;
19907;SDS011;10116;53.112;7.356;2023-05-07T11:16:24;3.80;;;3.50;;
19907;SDS011;10116;53.112;7.356;2023-05-07T11:18:53;3.60;;;3.40;;
19907;SDS011;10116;53.112;7.356;2023-05-07T11:21:33;3.30;;;3.10;;
19907;SDS011;10116;53.112;7.356;2023-05-07T11:24:03;3.50;;;3.30;;
19907;SDS011;10116;53.112;7.356;2023-05-07T11:26:30;3.17;;;2.97;;
19907;SDS011;10116;53.112;7.356;2023-05-07T11:29:10;3.37;;;3.17;;
19907;SDS011;10116;53.112;7.356;2023-05-07T11:31:43;3.70;;;3.10;;
19907;SDS011;10116;53.112;7.356;2023-05-07T11:34:13;3.40;;;3.10;;
19907;SDS011;10116;53.112;7.356;2023-05-07T11:36:43;2.90;;;2.70;;
19907;SDS011;10116;53.112;7.356;2023-05-07T11:39:29;3.30;;;3.10;;
19907;SDS011;10116;53.112;7.356;2023-05-07T11:41:57;3.33;;;3.00;;
19907;SDS011;10116;53.112;7.356;2023-05-07T11:44:24;2.83;;;2.73;;
19907;SDS011;10116;53.112;7.356;2023-05-07T11:46:50;3.07;;;2.97;;
19907;SDS011;10116;53.112;7.356;2023-05-07T11:49:16;3.00;;;2.80;;
19907;SDS011;10116;53.112;7.356;2023-05-07T11:51:42;2.70;;;2.60;;
19907;SDS011;10116;53.112;7.356;2023-05-07T11:54:08;3.43;;;3.13;;
19907;SDS011;10116;53.112;7.356;2023-05-07T11:56:36;2.87;;;2.77;;
19907;SDS011;10116;53.112;7.356;2023-05-07T11:59:02;2.80;;;2.60;;
19907;SDS011;10116;53.112;7.356;2023-05-07T12:01:28;5.90;;;2.50;;
19907;SDS011;10116;53.112;7.356;2023-05-07T12:03:54;2.80;;;2.60;;
19907;SDS011;10116;53.112;7.356;2023-05-07T12:06:19;2.50;;;2.40;;
19907;SDS011;10116;53.112;7.356;2023-05-07T12:08:45;3.03;;;2.90;;
19907;SDS011;10116;53.112;7.356;2023-05-07T12:11:15;3.23;;;2.90;;
19907;SDS011;10116;53.112;7.356;2023-05-07T12:13:46;3.10;;;2.90;;
19907;SDS011;10116;53.112;7.356;2023-05-07T12:16:12;3.10;;;2.90;;
19907;SDS011;10116;53.112;7.356;2023-05-07T12:18:37;3.33;;;3.07;;
19907;SDS011;10116;53.112;7.356;2023-05-07T12:21:04;2.50;;;2.40;;
19907;SDS011;10116;53.112;7.356;2023-05-07T12:23:31;3.03;;;2.93;;
19907;SDS011;10116;53.112;7.356;2023-05-07T12:25:58;2.80;;;2.60;;
19907;SDS011;10116;53.112;7.356;2023-05-07T12:28:24;2.70;;;2.50;;
19907;SDS011;10116;53.112;7.356;2023-05-07T12:30:50;2.60;;;2.50;;
19907;SDS011;10116;53.112;7.356;2023-05-07T12:33:18;3.60;;;2.30;;
19907;SDS011;10116;53.112;7.356;2023-05-07T12:35:48;3.67;;;2.30;;
19907;SDS011;10116;53.112;7.356;2023-05-07T12:38:15;2.30;;;2.20;;
19907;SDS011;10116;53.112;7.356;2023-05-07T12:40:45;2.70;;;2.60;;
19907;SDS011;10116;53.112;7.356;2023-05-07T12:43:25;2.80;;;2.70;;
19907;SDS011;10116;53.112;7.356;2023-05-07T12:45:53;2.73;;;2.63;;
19907;SDS011;10116;53.112;7.356;2023-05-07T12:48:20;2.70;;;2.50;;
19907;SDS011;10116;53.112;7.356;2023-05-07T12:50:50;2.50;;;2.30;;
19907;SDS011;10116;53.112;7.356;2023-05-07T12:53:16;2.30;;;2.20;;
19907;SDS011;10116;53.112;7.356;2023-05-07T12:55:46;2.70;;;2.60;;
19907;SDS011;10116;53.112;7.356;2023-05-07T12:58:16;2.30;;;2.10;;
19907;SDS011;10116;53.112;7.356;2023-05-07T13:00:44;2.43;;;2.33;;
19907;SDS011;10116;53.112;7.356;2023-05-07T13:03:10;2.70;;;2.60;;
19907;SDS011;10116;53.112;7.356;2023-05-07T13:05:36;2.60;;;2.40;;
19907;SDS011;10116;53.112;7.356;2023-05-07T13:08:02;3.10;;;2.90;;
19907;SDS011;10116;53.112;7.356;2023-05-07T13:10:28;2.83;;;2.73;;
19907;SDS011;10116;53.112;7.356;2023-05-07T13:12:53;2.53;;;2.43;;
19907;SDS011;10116;53.112;7.356;2023-05-07T13:15:19;2.87;;;2.70;;
19907;SDS011;10116;53.112;7.356;2023-05-07T13:17:46;2.57;;;2.47;;
19907;SDS011;10116;53.112;7.356;2023-05-07T13:20:12;3.00;;;2.80;;
19907;SDS011;10116;53.112;7.356;2023-05-07T13:22:38;2.40;;;2.30;;
19907;SDS011;10116;53.112;7.356;2023-05-07T13:25:04;7.30;;;2.77;;
19907;SDS011;10116;53.112;7.356;2023-05-07T13:27:30;3.00;;;2.80;;
19907;SDS011;10116;53.112;7.356;2023-05-07T13:29:56;3.20;;;3.10;;
19907;SDS011;10116;53.112;7.356;2023-05-07T13:32:22;7.20;;;4.50;;
19907;SDS011;10116;53.112;7.356;2023-05-07T13:34:48;3.73;;;3.53;;
19907;SDS011;10116;53.112;7.356;2023-05-07T13:37:13;4.03;;;3.80;;
19907;SDS011;10116;53.112;7.356;2023-05-07T13:39:39;6.90;;;3.90;;
19907;SDS011;10116;53.112;7.356;2023-05-07T13:42:05;3.50;;;3.30;;
19907;SDS011;10116;53.112;7.356;2023-05-07T13:44:31;4.17;;;3.73;;
19907;SDS011;10116;53.112;7.356;2023-05-07T13:46:57;3.70;;;3.50;;
19907;SDS011;10116;53.112;7.356;2023-05-07T13:49:22;3.30;;;3.20;;
19907;SDS011;10116;53.112;7.356;2023-05-07T13:51:48;3.80;;;3.60;;
19907;SDS011;10116;53.112;7.356;2023-05-07T13:54:14;3.47;;;3.27;;
19907;SDS011;10116;53.112;7.356;2023-05-07T13:56:40;3.17;;;3.00;;
19907;SDS011;10116;53.112;7.356;2023-05-07T13:59:06;4.37;;;3.23;;
19907;SDS011;10116;53.112;7.356;2023-05-07T14:01:32;2.90;;;2.80;;
19907;SDS011;10116;53.112;7.356;2023-05-07T14:03:57;3.83;;;3.50;;
19907;SDS011;10116;53.112;7.356;2023-05-07T14:06:24;3.20;;;3.00;;
19907;SDS011;10116;53.112;7.356;2023-05-07T14:08:50;3.53;;;3.37;;
19907;SDS011;10116;53.112;7.356;2023-05-07T14:11:16;3.77;;;3.47;;
19907;SDS011;10116;53.112;7.356;2023-05-07T14:13:41;3.60;;;3.40;;
19907;SDS011;10116;53.112;7.356;2023-05-07T14:16:07;3.20;;;3.07;;
19907;SDS011;10116;53.112;7.356;2023-05-07T14:18:33;4.00;;;3.70;;
19907;SDS011;10116;53.112;7.356;2023-05-07T14:20:59;3.37;;;3.17;;
19907;SDS011;10116;53.112;7.356;2023-05-07T14:23:25;5.90;;;3.30;;
19907;SDS011;10116;53.112;7.356;2023-05-07T14:25:52;3.63;;;3.43;;
19907;SDS011;10116;53.112;7.356;2023-05-07T14:28:18;3.00;;;2.90;;
19907;SDS011;10116;53.112;7.356;2023-05-07T14:30:44;5.20;;;4.80;;
19907;SDS011;10116;53.112;7.356;2023-05-07T14:33:09;7.30;;;6.70;;
19907;SDS011;10116;53.112;7.356;2023-05-07T14:35:35;7.67;;;6.97;;
19907;SDS011;10116;53.112;7.356;2023-05-07T14:38:01;8.20;;;7.50;;
19907;SDS011;10116;53.112;7.356;2023-05-07T14:40:26;7.70;;;7.00;;
19907;SDS011;10116;53.112;7.356;2023-05-07T14:42:52;7.83;;;7.10;;
19907;SDS011;10116;53.112;7.356;2023-05-07T14:45:17;6.57;;;6.07;;
19907;SDS011;10116;53.112;7.356;2023-05-07T14:47:43;6.17;;;5.67;;
19907;SDS011;10116;53.112;7.356;2023-05-07T14:50:09;6.10;;;5.40;;
19907;SDS011;10116;53.112;7.356;2023-05-07T14:52:35;6.70;;;6.10;;
19907;SDS011;10116;53.112;7.356;2023-05-07T14:55:00;6.00;;;5.27;;
19907;SDS011;10116;53.112;7.356;2023-05-07T14:57:26;6.03;;;5.53;;
19907;SDS011;10116;53.112;7.356;2023-05-07T14:59:52;5.60;;;5.20;;